sensor_id;sensor_type;location;lat;lon;timestamp;pressure;altitude;pressure_sealevel;temperature
82774;BMP280;72508;45.118;20.728;2024-02-15T00:08:56;101299.59;;;8.18
82774;BMP280;72508;45.118;20.728;2024-02-15T00:18:58;101302.59;;;7.91
82774;BMP280;72508;45.118;20.728;2024-02-15T00:29:01;101298.41;;;7.65
82774;BMP280;72508;45.118;20.728;2024-02-15T00:39:02;101300.59;;;7.45
82774;BMP280;72508;45.118;20.728;2024-02-15T00:49:08;101289.84;;;7.24
82774;BMP280;72508;45.118;20.728;2024-02-15T00:59:10;101299.13;;;7.26
82774;BMP280;72508;45.118;20.728;2024-02-15T01:09:11;101301.41;;;7.13
82774;BMP280;72508;45.118;20.728;2024-02-15T01:19:14;101278.91;;;6.95
82774;BMP280;72508;45.118;20.728;2024-02-15T01:29:16;101293.88;;;6.93
82774;BMP280;72508;45.118;20.728;2024-02-15T01:39:17;101282.75;;;6.58
82774;BMP280;72508;45.118;20.728;2024-02-15T01:49:20;101304.16;;;7.03
82774;BMP280;72508;45.118;20.728;2024-02-15T01:59:25;101292.94;;;7.03
82774;BMP280;72508;45.118;20.728;2024-02-15T02:09:27;101294.84;;;6.84
82774;BMP280;72508;45.118;20.728;2024-02-15T02:19:29;101296.63;;;6.75
82774;BMP280;72508;45.118;20.728;2024-02-15T02:29:30;101290.09;;;6.71
82774;BMP280;72508;45.118;20.728;2024-02-15T02:39:33;101277.91;;;6.96
82774;BMP280;72508;45.118;20.728;2024-02-15T02:49:35;101293.88;;;6.93
82774;BMP280;72508;45.118;20.728;2024-02-15T02:59:38;101272.19;;;6.60
82774;BMP280;72508;45.118;20.728;2024-02-15T03:09:41;101294.34;;;6.64
82774;BMP280;72508;45.118;20.728;2024-02-15T03:19:42;101288.31;;;6.64
82774;BMP280;72508;45.118;20.728;2024-02-15T03:29:44;101273.63;;;6.54
82774;BMP280;72508;45.118;20.728;2024-02-15T03:39:46;101290.59;;;6.67
82774;BMP280;72508;45.118;20.728;2024-02-15T03:49:48;101299.63;;;6.46
82774;BMP280;72508;45.118;20.728;2024-02-15T03:59:50;101315.66;;;6.76
82774;BMP280;72508;45.118;20.728;2024-02-15T04:09:54;101303.63;;;6.83
82774;BMP280;72508;45.118;20.728;2024-02-15T04:19:55;101323.19;;;6.87
82774;BMP280;72508;45.118;20.728;2024-02-15T04:29:57;101319.25;;;6.75
82774;BMP280;72508;45.118;20.728;2024-02-15T04:39:59;101314.63;;;6.52
82774;BMP280;72508;45.118;20.728;2024-02-15T04:50:08;101328.88;;;6.40
82774;BMP280;72508;45.118;20.728;2024-02-15T05:00:13;101341.16;;;6.22
82774;BMP280;72508;45.118;20.728;2024-02-15T05:10:17;101330.44;;;6.16
82774;BMP280;72508;45.118;20.728;2024-02-15T05:20:19;101331.75;;;6.29
82774;BMP280;72508;45.118;20.728;2024-02-15T05:30:22;101342.25;;;6.45
82774;BMP280;72508;45.118;20.728;2024-02-15T05:40:24;101352.81;;;6.35
82774;BMP280;72508;45.118;20.728;2024-02-15T05:50:26;101358.78;;;6.02
82774;BMP280;72508;45.118;20.728;2024-02-15T06:00:30;101356.63;;;5.97
82774;BMP280;72508;45.118;20.728;2024-02-15T06:10:32;101365.00;;;6.09
82774;BMP280;72508;45.118;20.728;2024-02-15T06:20:34;101374.03;;;6.23
82774;BMP280;72508;45.118;20.728;2024-02-15T06:30:36;101374.44;;;6.44
82774;BMP280;72508;45.118;20.728;2024-02-15T06:40:58;101378.81;;;6.78
82774;BMP280;72508;45.118;20.728;2024-02-15T06:51:00;101383.44;;;7.17
82774;BMP280;72508;45.118;20.728;2024-02-15T07:01:01;101389.88;;;7.47
82774;BMP280;72508;45.118;20.728;2024-02-15T07:11:03;101371.13;;;7.68
82774;BMP280;72508;45.118;20.728;2024-02-15T07:21:05;101375.63;;;8.07
82774;BMP280;72508;45.118;20.728;2024-02-15T07:31:12;101383.63;;;8.05
82774;BMP280;72508;45.118;20.728;2024-02-15T07:41:17;101376.44;;;8.47
82774;BMP280;72508;45.118;20.728;2024-02-15T07:51:22;101386.19;;;9.16
82774;BMP280;72508;45.118;20.728;2024-02-15T08:01:24;101379.53;;;9.51
82774;BMP280;72508;45.118;20.728;2024-02-15T08:11:26;101379.13;;;10.07
82774;BMP280;72508;45.118;20.728;2024-02-15T08:21:29;101372.06;;;10.52
82774;BMP280;72508;45.118;20.728;2024-02-15T08:31:30;101377.69;;;10.92
82774;BMP280;72508;45.118;20.728;2024-02-15T08:41:33;101375.19;;;11.27
82774;BMP280;72508;45.118;20.728;2024-02-15T08:51:36;101390.09;;;11.89
82774;BMP280;72508;45.118;20.728;2024-02-15T09:01:38;101376.59;;;12.53
82774;BMP280;72508;45.118;20.728;2024-02-15T09:11:40;101383.13;;;12.98
82774;BMP280;72508;45.118;20.728;2024-02-15T09:21:42;101380.66;;;13.43
82774;BMP280;72508;45.118;20.728;2024-02-15T09:31:44;101380.78;;;14.19
82774;BMP280;72508;45.118;20.728;2024-02-15T09:41:47;101389.06;;;14.61
82774;BMP280;72508;45.118;20.728;2024-02-15T09:51:56;101372.88;;;15.26
82774;BMP280;72508;45.118;20.728;2024-02-15T10:01:59;101369.72;;;15.73
82774;BMP280;72508;45.118;20.728;2024-02-15T10:12:01;101383.16;;;16.01
82774;BMP280;72508;45.118;20.728;2024-02-15T10:22:07;101366.81;;;16.23
82774;BMP280;72508;45.118;20.728;2024-02-15T10:32:09;101333.53;;;16.81
82774;BMP280;72508;45.118;20.728;2024-02-15T10:42:11;101343.53;;;17.42
82774;BMP280;72508;45.118;20.728;2024-02-15T10:52:14;101330.59;;;17.58
82774;BMP280;72508;45.118;20.728;2024-02-15T11:02:25;101319.03;;;18.26
82774;BMP280;72508;45.118;20.728;2024-02-15T11:12:28;101311.78;;;18.39
82774;BMP280;72508;45.118;20.728;2024-02-15T11:22:31;101306.69;;;19.42
82774;BMP280;72508;45.118;20.728;2024-02-15T11:32:36;101289.63;;;18.89
82774;BMP280;72508;45.118;20.728;2024-02-15T11:42:40;101283.06;;;19.18
82774;BMP280;72508;45.118;20.728;2024-02-15T11:52:42;101275.94;;;19.24
82774;BMP280;72508;45.118;20.728;2024-02-15T12:02:43;101272.13;;;20.06
82774;BMP280;72508;45.118;20.728;2024-02-15T12:13:05;101263.31;;;20.01
82774;BMP280;72508;45.118;20.728;2024-02-15T12:23:26;101255.53;;;19.89
82774;BMP280;72508;45.118;20.728;2024-02-15T12:33:28;101235.78;;;19.80
82774;BMP280;72508;45.118;20.728;2024-02-15T12:43:30;101219.19;;;20.73
82774;BMP280;72508;45.118;20.728;2024-02-15T12:53:32;101211.34;;;20.35
82774;BMP280;72508;45.118;20.728;2024-02-15T13:03:34;101197.22;;;20.30
82774;BMP280;72508;45.118;20.728;2024-02-15T13:13:35;101198.53;;;19.75
82774;BMP280;72508;45.118;20.728;2024-02-15T13:23:38;101191.25;;;19.27
82774;BMP280;72508;45.118;20.728;2024-02-15T13:33:40;101181.31;;;19.45
82774;BMP280;72508;45.118;20.728;2024-02-15T13:43:45;101185.78;;;19.39
82774;BMP280;72508;45.118;20.728;2024-02-15T13:53:47;101171.91;;;19.69
82774;BMP280;72508;45.118;20.728;2024-02-15T14:03:49;101168.97;;;19.29
82774;BMP280;72508;45.118;20.728;2024-02-15T14:13:50;101180.59;;;18.95
82774;BMP280;72508;45.118;20.728;2024-02-15T14:23:59;101173.34;;;18.20
82774;BMP280;72508;45.118;20.728;2024-02-15T14:34:01;101175.97;;;18.37
82774;BMP280;72508;45.118;20.728;2024-02-15T14:44:03;101173.41;;;18.25
82774;BMP280;72508;45.118;20.728;2024-02-15T14:54:04;101178.16;;;18.45
82774;BMP280;72508;45.118;20.728;2024-02-15T15:04:06;101165.94;;;18.00
82774;BMP280;72508;45.118;20.728;2024-02-15T15:14:11;101165.47;;;17.52
82774;BMP280;72508;45.118;20.728;2024-02-15T15:24:14;101169.91;;;17.18
82774;BMP280;72508;45.118;20.728;2024-02-15T15:34:15;101186.84;;;16.88
82774;BMP280;72508;45.118;20.728;2024-02-15T15:44:17;101186.56;;;16.61
82774;BMP280;72508;45.118;20.728;2024-02-15T15:54:19;101186.47;;;16.21
82774;BMP280;72508;45.118;20.728;2024-02-15T16:04:21;101201.41;;;16.03
82774;BMP280;72508;45.118;20.728;2024-02-15T16:14:23;101211.38;;;15.78
82774;BMP280;72508;45.118;20.728;2024-02-15T16:24:25;101204.41;;;15.53
82774;BMP280;72508;45.118;20.728;2024-02-15T16:34:27;101210.19;;;15.13
82774;BMP280;72508;45.118;20.728;2024-02-15T16:44:29;101220.03;;;14.88
82774;BMP280;72508;45.118;20.728;2024-02-15T16:54:31;101237.53;;;14.64
82774;BMP280;72508;45.118;20.728;2024-02-15T17:04:32;101238.75;;;14.36
82774;BMP280;72508;45.118;20.728;2024-02-15T17:14:34;101236.56;;;14.08
82774;BMP280;72508;45.118;20.728;2024-02-15T17:24:36;101247.63;;;13.92
82774;BMP280;72508;45.118;20.728;2024-02-15T17:34:42;101255.06;;;13.63
82774;BMP280;72508;45.118;20.728;2024-02-15T17:44:43;101256.38;;;13.41
82774;BMP280;72508;45.118;20.728;2024-02-15T17:54:46;101260.94;;;13.07
82774;BMP280;72508;45.118;20.728;2024-02-15T18:04:47;101262.16;;;12.91
82774;BMP280;72508;45.118;20.728;2024-02-15T18:14:50;101257.72;;;12.78
82774;BMP280;72508;45.118;20.728;2024-02-15T18:24:52;101250.44;;;12.53
82774;BMP280;72508;45.118;20.728;2024-02-15T18:34:53;101258.56;;;12.45
82774;BMP280;72508;45.118;20.728;2024-02-15T18:44:55;101251.03;;;12.16
82774;BMP280;72508;45.118;20.728;2024-02-15T18:54:57;101242.06;;;11.90
82774;BMP280;72508;45.118;20.728;2024-02-15T19:04:58;101238.59;;;11.76
82774;BMP280;72508;45.118;20.728;2024-02-15T19:15:06;101249.44;;;11.66
82774;BMP280;72508;45.118;20.728;2024-02-15T19:25:10;101251.66;;;11.56
82774;BMP280;72508;45.118;20.728;2024-02-15T19:35:21;101254.25;;;11.50
82774;BMP280;72508;45.118;20.728;2024-02-15T19:45:24;101261.34;;;11.28
82774;BMP280;72508;45.118;20.728;2024-02-15T19:55:26;101267.72;;;11.12
82774;BMP280;72508;45.118;20.728;2024-02-15T20:05:28;101272.97;;;11.12
82774;BMP280;72508;45.118;20.728;2024-02-15T20:15:29;101269.00;;;10.94
82774;BMP280;72508;45.118;20.728;2024-02-15T20:25:31;101268.28;;;10.79
82774;BMP280;72508;45.118;20.728;2024-02-15T20:35:33;101270.25;;;10.70
82774;BMP280;72508;45.118;20.728;2024-02-15T20:45:35;101275.34;;;10.57
82774;BMP280;72508;45.118;20.728;2024-02-15T20:55:37;101266.75;;;10.42
82774;BMP280;72508;45.118;20.728;2024-02-15T21:05:39;101266.41;;;10.30
82774;BMP280;72508;45.118;20.728;2024-02-15T21:15:41;101267.81;;;10.26
82774;BMP280;72508;45.118;20.728;2024-02-15T21:25:43;101262.63;;;10.11
82774;BMP280;72508;45.118;20.728;2024-02-15T21:35:45;101264.81;;;10.14
82774;BMP280;72508;45.118;20.728;2024-02-15T21:45:47;101258.69;;;10.07
82774;BMP280;72508;45.118;20.728;2024-02-15T21:55:48;101263.00;;;9.93
82774;BMP280;72508;45.118;20.728;2024-02-15T22:05:50;101242.56;;;9.67
82774;BMP280;72508;45.118;20.728;2024-02-15T22:15:52;101265.91;;;9.54
82774;BMP280;72508;45.118;20.728;2024-02-15T22:25:53;101268.53;;;9.54
82774;BMP280;72508;45.118;20.728;2024-02-15T22:35:55;101262.38;;;9.46
82774;BMP280;72508;45.118;20.728;2024-02-15T22:45:57;101265.78;;;9.32
82774;BMP280;72508;45.118;20.728;2024-02-15T22:56:01;101268.00;;;9.05
82774;BMP280;72508;45.118;20.728;2024-02-15T23:06:03;101264.25;;;8.85
82774;BMP280;72508;45.118;20.728;2024-02-15T23:16:07;101270.19;;;8.79
82774;BMP280;72508;45.118;20.728;2024-02-15T23:26:10;101263.72;;;8.66
82774;BMP280;72508;45.118;20.728;2024-02-15T23:36:12;101255.19;;;8.73
82774;BMP280;72508;45.118;20.728;2024-02-15T23:46:33;101264.69;;;8.65
82774;BMP280;72508;45.118;20.728;2024-02-15T23:56:35;101253.63;;;8.40
